East Star-1 — 9LU2511 — position and weather

sailwx.info

Track history (hours):
 
Tides and Currents Weather Stations Pressure Air Temp Water Temp Dewpoint Dewpoint Depression Visibility Wind Speed Wind Dir Waves Ship Positions

East Star-1

Last reported at 2017-Nov-30 18:33 UTC. Time now 2017-Dec-15 16:02 UTC.
Position N 34°32' E 138°19'.
Warning: this ship's position is 14 days out of date.

Length 99 m; draft 5.3 m.

Type: Cargo ship. MMSI: 667001708.

Date/timePositionNaut miles runAvg speedWind from/ knotsBaromVisibWave heightAir tempDewpointWater temp
2017-Nov-30 18:33N 34°32' E 138°19'11 7.3
2017-Nov-30 16:59N 34°32' E 138°33'4 7.3
2017-Nov-30 16:29N 34°32' E 138°38'4 7.0
2017-Nov-30 15:57N 34°32' E 138°42'4 7.1
2017-Nov-30 15:24N 34°32' E 138°47'3 7.4
2017-Nov-30 15:00N 34°32' E 138°51'4 7.3
2017-Nov-30 14:30N 34°32' E 138°55'3 6.7
2017-Nov-30 14:00N 34°33' E 138°59'6 8.9
2017-Nov-30 13:21N 34°38' E 139°03'5 9.5
2017-Nov-30 12:52N 34°41' E 139°07'6 9.6
2017-Nov-30 12:14N 34°46' E 139°12'6 9.9
2017-Nov-30 11:39N 34°50' E 139°16'2 9.3
2017-Nov-30 11:26N 34°52' E 139°17'6 9.6
2017-Nov-30 10:50N 34°56' E 139°23'3 9.4
2017-Nov-30 10:29N 34°57' E 139°26'4 9.1
2017-Nov-30 10:00N 34°60' E 139°31'510.0
2017-Nov-30 09:30N 35°02' E 139°36'510.8
2017-Nov-30 09:00N 35°05' E 139°41'5 9.9
2017-Nov-30 08:30N 35°09' E 139°45'510.8
2017-Nov-30 08:00N 35°15' E 139°46'510.5
2017-Nov-30 07:30N 35°19' E 139°43'5 9.7
2017-Nov-30 07:01N 35°24' E 139°42'4 7.4
2017-Nov-30 06:30N 35°28' E 139°42'1 1.5
2017-Nov-30 06:00N 35°28' E 139°42'0 0.0
2017-Nov-30 05:30N 35°28' E 139°42'0 0.0
2017-Nov-30 05:01N 35°28' E 139°42'0 0.0
2017-Nov-30 04:30N 35°28' E 139°42'0 0.0
2017-Nov-30 04:00N 35°28' E 139°42'0 0.0
2017-Nov-30 03:31N 35°28' E 139°42'0 0.0
2017-Nov-30 03:01N 35°28' E 139°42'0 0.0
2017-Nov-30 02:30N 35°28' E 139°42'0 0.0
2017-Nov-30 02:00N 35°28' E 139°42'0 0.0
2017-Nov-30 01:30N 35°28' E 139°42'0 0.0
2017-Nov-30 01:01N 35°28' E 139°42'0 0.0
2017-Nov-30 00:30N 35°28' E 139°42'0 0.0
2017-Nov-30 00:00N 35°28' E 139°42'0 0.0
2017-Nov-29 23:30N 35°28' E 139°42'0 0.0
2017-Nov-29 23:00N 35°28' E 139°42'0 0.0
2017-Nov-29 22:30N 35°28' E 139°42'0 0.0
2017-Nov-29 22:00N 35°28' E 139°42'0 0.0
2017-Nov-29 21:30N 35°28' E 139°42'0 0.0
2017-Nov-29 21:00N 35°28' E 139°42'0 0.0
2017-Nov-29 20:31N 35°28' E 139°42'0 0.0
2017-Nov-29 20:00N 35°28' E 139°42'0 0.0
2017-Nov-29 19:30N 35°28' E 139°42'0 0.0
2017-Nov-29 19:00N 35°28' E 139°42'0 0.0
2017-Nov-29 18:31N 35°28' E 139°42'0 0.0
2017-Nov-29 18:00N 35°28' E 139°42'0 0.0
2017-Nov-29 17:31N 35°28' E 139°42'0 0.0
2017-Nov-29 17:00N 35°28' E 139°42'0 0.0
2017-Nov-29 16:30N 35°28' E 139°42'0 0.0
2017-Nov-29 16:01N 35°28' E 139°42'0 0.0
2017-Nov-29 15:30N 35°28' E 139°42'0 0.0
2017-Nov-29 15:00N 35°28' E 139°42'0 0.0
2017-Nov-29 14:30N 35°28' E 139°42'0 0.0
2017-Nov-29 14:00N 35°28' E 139°42'0 0.0
2017-Nov-29 13:30N 35°28' E 139°42'0 0.0
2017-Nov-29 13:00N 35°28' E 139°42'0 0.0
2017-Nov-29 12:30N 35°28' E 139°42'0 0.0
2017-Nov-29 12:00N 35°28' E 139°42'0 0.0
2017-Nov-29 11:30N 35°28' E 139°42'0 0.0
2017-Nov-29 11:00N 35°28' E 139°42'0 0.0
2017-Nov-29 10:30N 35°28' E 139°42'0 0.0
2017-Nov-29 10:00N 35°28' E 139°42'0 0.0
2017-Nov-29 09:30N 35°28' E 139°42'0 0.0
2017-Nov-29 09:00N 35°28' E 139°42'0 0.0
2017-Nov-29 08:31N 35°28' E 139°42'0 0.0
2017-Nov-29 08:00N 35°28' E 139°42'0 0.0
2017-Nov-29 07:30N 35°28' E 139°42'0 0.0
2017-Nov-29 07:00N 35°28' E 139°42'0 0.0
2017-Nov-29 06:30N 35°28' E 139°42'0 0.0
2017-Nov-29 06:00N 35°28' E 139°42'0 0.0
2017-Nov-29 05:30N 35°28' E 139°42'0 0.0
2017-Nov-29 05:00N 35°28' E 139°42'0 0.0
2017-Nov-29 04:30N 35°28' E 139°42'0 0.0
2017-Nov-29 04:00N 35°28' E 139°42'0 0.0
2017-Nov-29 03:30N 35°28' E 139°42'0 0.0
2017-Nov-29 03:00N 35°28' E 139°42'0 0.0
2017-Nov-29 02:30N 35°28' E 139°42'0 0.0
2017-Nov-29 02:00N 35°28' E 139°42'0 0.0
2017-Nov-29 01:30N 35°28' E 139°42'0 0.0
2017-Nov-29 01:00N 35°28' E 139°42'0 0.0
2017-Nov-29 00:30N 35°28' E 139°42'0 0.0
2017-Nov-29 00:01N 35°28' E 139°42'0 0.0
2017-Nov-28 23:30N 35°28' E 139°42'0 0.0
2017-Nov-28 23:00N 35°28' E 139°42'0 0.0
2017-Nov-28 22:30N 35°28' E 139°42'0 0.2
2017-Nov-28 22:00N 35°28' E 139°42'2 3.5
2017-Nov-28 21:30N 35°26' E 139°43'1 2.0
2017-Nov-28 20:58N 35°26' E 139°42'0 0.0
2017-Nov-28 20:28N 35°26' E 139°42'0 0.1
2017-Nov-28 19:58N 35°26' E 139°42'0 0.1
2017-Nov-28 19:28N 35°26' E 139°42'0 0.1
2017-Nov-28 18:58N 35°26' E 139°42'0 0.0
2017-Nov-28 18:28N 35°26' E 139°42'0 0.1
2017-Nov-28 17:58N 35°26' E 139°42'0 0.0
2017-Nov-28 17:28N 35°26' E 139°42'0 0.0
2017-Nov-28 16:58N 35°26' E 139°42'0 0.0
2017-Nov-28 16:28N 35°26' E 139°42'0 0.0
2017-Nov-28 15:58N 35°26' E 139°42'0 0.0
2017-Nov-28 14:58N 35°26' E 139°42'0 0.0
2017-Nov-28 14:28N 35°26' E 139°42'0 0.0
2017-Nov-28 13:58N 35°26' E 139°42'0 0.0
2017-Nov-28 13:28N 35°26' E 139°42'0 0.0
2017-Nov-28 12:58N 35°26' E 139°42'0 0.1
2017-Nov-28 12:28N 35°26' E 139°42'0 0.0
2017-Nov-28 11:58N 35°26' E 139°42'0 0.0
2017-Nov-28 11:28N 35°26' E 139°42'0 0.1
2017-Nov-28 10:58N 35°26' E 139°42'0 0.0
2017-Nov-28 10:28N 35°26' E 139°42'0 0.1
2017-Nov-28 09:58N 35°26' E 139°42'0 0.0
2017-Nov-28 09:28N 35°26' E 139°42'0 0.0
2017-Nov-28 08:58N 35°26' E 139°42'0 0.0
2017-Nov-28 08:28N 35°26' E 139°42'0 0.0
2017-Nov-28 07:58N 35°26' E 139°42'0 0.0
2017-Nov-28 07:28N 35°26' E 139°42'0 0.0
2017-Nov-28 06:58N 35°26' E 139°42'0 0.0
2017-Nov-28 06:28N 35°26' E 139°42'0 0.0
2017-Nov-28 05:58N 35°26' E 139°42'0 0.1
2017-Nov-28 05:28N 35°26' E 139°42'0 0.0
2017-Nov-28 04:28N 35°26' E 139°42'0 0.0
2017-Nov-28 03:58N 35°26' E 139°42'0 0.1
2017-Nov-28 03:28N 35°26' E 139°42'0 0.0
2017-Nov-28 02:58N 35°26' E 139°42'0 0.0
2017-Nov-28 02:28N 35°26' E 139°42'0 0.0
2017-Nov-28 01:58N 35°26' E 139°42'0 0.1
2017-Nov-28 01:28N 35°26' E 139°42'0 0.0
2017-Nov-28 00:58N 35°26' E 139°42'0 0.0
2017-Nov-28 00:28N 35°26' E 139°42'0 0.1
2017-Nov-27 23:58N 35°26' E 139°42'0 0.0
2017-Nov-27 23:28N 35°26' E 139°42'0 0.0
2017-Nov-27 22:58N 35°26' E 139°42'0 0.1
2017-Nov-27 22:28N 35°26' E 139°42'0 0.1
2017-Nov-27 21:58N 35°26' E 139°42'0 0.0
2017-Nov-27 21:28N 35°26' E 139°42'0 0.1
2017-Nov-27 20:58N 35°26' E 139°42'0 0.1
2017-Nov-27 20:28N 35°26' E 139°42'0 0.0
2017-Nov-27 19:58N 35°26' E 139°42'0 0.0
2017-Nov-27 19:28N 35°26' E 139°42'0 0.1
2017-Nov-27 18:58N 35°26' E 139°42'0 0.1
2017-Nov-27 18:28N 35°26' E 139°42'0 0.1
2017-Nov-27 17:58N 35°26' E 139°42'0 0.0
2017-Nov-27 17:25N 35°26' E 139°42'0 0.0
2017-Nov-27 16:58N 35°26' E 139°42'0 0.0
2017-Nov-27 16:28N 35°26' E 139°42'0 0.0
2017-Nov-27 15:58N 35°26' E 139°42'0 0.0
2017-Nov-27 15:28N 35°26' E 139°42'0 0.0
2017-Nov-27 14:58N 35°26' E 139°42'0 0.0
2017-Nov-27 14:28N 35°26' E 139°42'0 0.0
2017-Nov-27 13:58N 35°26' E 139°42'0 0.1
2017-Nov-27 13:28N 35°26' E 139°42'0 0.0
2017-Nov-27 12:58N 35°26' E 139°42'0 0.0
2017-Nov-27 12:28N 35°26' E 139°42'0 0.0
2017-Nov-27 11:58N 35°26' E 139°42'0 0.0
2017-Nov-27 11:28N 35°26' E 139°42'0 0.0
2017-Nov-27 10:58N 35°26' E 139°42'0 0.0
2017-Nov-27 10:28N 35°26' E 139°42'0 0.0
2017-Nov-27 09:58N 35°26' E 139°42'0 0.0
2017-Nov-27 09:28N 35°26' E 139°42'0 0.0
2017-Nov-27 08:58N 35°26' E 139°42'0 0.0
2017-Nov-27 08:28N 35°26' E 139°42'0 0.0
2017-Nov-27 07:58N 35°26' E 139°42'0 0.0
2017-Nov-27 07:28N 35°26' E 139°42'0 0.0
2017-Nov-27 06:58N 35°26' E 139°42'0 0.0
2017-Nov-27 06:28N 35°26' E 139°42'0 0.0
2017-Nov-27 05:58N 35°26' E 139°42'0 0.0
2017-Nov-27 05:28N 35°26' E 139°42'0 0.1
2017-Nov-27 04:58N 35°26' E 139°42'0 0.0
2017-Nov-27 04:28N 35°26' E 139°42'0 0.1
2017-Nov-27 03:58N 35°26' E 139°42'0 0.0
2017-Nov-27 03:28N 35°26' E 139°42'0 0.0
2017-Nov-27 02:58N 35°26' E 139°42'0 0.0
2017-Nov-27 02:28N 35°26' E 139°42'0 0.0
2017-Nov-27 01:58N 35°26' E 139°42'0 0.0
2017-Nov-27 01:28N 35°26' E 139°42'0 0.0
2017-Nov-27 00:58N 35°26' E 139°42'0 0.0
2017-Nov-27 00:28N 35°26' E 139°42'0 0.2
2017-Nov-27 00:00N 35°26' E 139°42'3 6.4
2017-Nov-26 23:30N 35°23' E 139°43'4 8.8
2017-Nov-26 23:00N 35°18' E 139°44'5 9.5
2017-Nov-26 22:30N 35°14' E 139°47'4 8.9
2017-Nov-26 22:00N 35°10' E 139°46'4 8.8
2017-Nov-26 21:30N 35°06' E 139°45'4 8.4
2017-Nov-26 21:00N 35°03' E 139°41'4 8.4
2017-Nov-26 20:30N 35°00' E 139°37'5 9.1
2017-Nov-26 20:00N 34°57' E 139°33'510.3
2017-Nov-26 19:28N 34°54' E 139°27'510.4
2017-Nov-26 19:00N 34°52' E 139°22'510.6
2017-Nov-26 18:30N 34°48' E 139°18'610.9
2017-Nov-26 18:00N 34°44' E 139°14'611.9
2017-Nov-26 17:30N 34°39' E 139°09'612.2
2017-Nov-26 17:00N 34°34' E 139°04'611.7
2017-Nov-26 16:30N 34°30' E 138°59'712.1
2017-Nov-26 15:54N 34°27' E 138°51'511.6
2017-Nov-26 15:29N 34°26' E 138°46'611.5
2017-Nov-26 15:00N 34°23' E 138°39'611.3
2017-Nov-26 14:30N 34°21' E 138°33'611.0
2017-Nov-26 14:00N 34°19' E 138°27'810.5
2017-Nov-26 13:13N 34°16' E 138°18'410.2
2017-Nov-26 12:52N 34°15' E 138°14'410.6
2017-Nov-26 12:28N 34°13' E 138°09'145 8.5
2017-Nov-25 19:27N 33°19' E 135°28'116 9.8
2017-Nov-25 07:40N 32°40' E 133°17'  
Track history (hours):
 
Tides and Currents Weather Stations Pressure Air Temp Water Temp Dewpoint Dewpoint Depression Visibility Wind Speed Wind Dir Waves Ship Positions

East Star-1

Last reported at 2017-Nov-30 18:33 UTC. Time now 2017-Dec-15 16:02 UTC.
Position N 34°32' E 138°19'.
Warning: this ship's position is 14 days out of date.

Length 99 m; draft 5.3 m.

Type: Cargo ship. MMSI: 667001708.

Date/timePositionNaut miles runAvg speedWind from/ knotsBaromVisibWave heightAir tempDewpointWater temp
2017-Nov-30 18:33N 34°32' E 138°19'11 7.3
2017-Nov-30 16:59N 34°32' E 138°33'4 7.3
2017-Nov-30 16:29N 34°32' E 138°38'4 7.0
2017-Nov-30 15:57N 34°32' E 138°42'4 7.1
2017-Nov-30 15:24N 34°32' E 138°47'3 7.4
2017-Nov-30 15:00N 34°32' E 138°51'4 7.3
2017-Nov-30 14:30N 34°32' E 138°55'3 6.7
2017-Nov-30 14:00N 34°33' E 138°59'6 8.9
2017-Nov-30 13:21N 34°38' E 139°03'5 9.5
2017-Nov-30 12:52N 34°41' E 139°07'6 9.6
2017-Nov-30 12:14N 34°46' E 139°12'6 9.9
2017-Nov-30 11:39N 34°50' E 139°16'2 9.3
2017-Nov-30 11:26N 34°52' E 139°17'6 9.6
2017-Nov-30 10:50N 34°56' E 139°23'3 9.4
2017-Nov-30 10:29N 34°57' E 139°26'4 9.1
2017-Nov-30 10:00N 34°60' E 139°31'510.0
2017-Nov-30 09:30N 35°02' E 139°36'510.8
2017-Nov-30 09:00N 35°05' E 139°41'5 9.9
2017-Nov-30 08:30N 35°09' E 139°45'510.8
2017-Nov-30 08:00N 35°15' E 139°46'510.5
2017-Nov-30 07:30N 35°19' E 139°43'5 9.7
2017-Nov-30 07:01N 35°24' E 139°42'4 7.4
2017-Nov-30 06:30N 35°28' E 139°42'1 1.5
2017-Nov-30 06:00N 35°28' E 139°42'0 0.0
2017-Nov-30 05:30N 35°28' E 139°42'0 0.0
2017-Nov-30 05:01N 35°28' E 139°42'0 0.0
2017-Nov-30 04:30N 35°28' E 139°42'0 0.0
2017-Nov-30 04:00N 35°28' E 139°42'0 0.0
2017-Nov-30 03:31N 35°28' E 139°42'0 0.0
2017-Nov-30 03:01N 35°28' E 139°42'0 0.0
2017-Nov-30 02:30N 35°28' E 139°42'0 0.0
2017-Nov-30 02:00N 35°28' E 139°42'0 0.0
2017-Nov-30 01:30N 35°28' E 139°42'0 0.0
2017-Nov-30 01:01N 35°28' E 139°42'0 0.0
2017-Nov-30 00:30N 35°28' E 139°42'0 0.0
2017-Nov-30 00:00N 35°28' E 139°42'0 0.0
2017-Nov-29 23:30N 35°28' E 139°42'0 0.0
2017-Nov-29 23:00N 35°28' E 139°42'0 0.0
2017-Nov-29 22:30N 35°28' E 139°42'0 0.0
2017-Nov-29 22:00N 35°28' E 139°42'0 0.0
2017-Nov-29 21:30N 35°28' E 139°42'0 0.0
2017-Nov-29 21:00N 35°28' E 139°42'0 0.0
2017-Nov-29 20:31N 35°28' E 139°42'0 0.0
2017-Nov-29 20:00N 35°28' E 139°42'0 0.0
2017-Nov-29 19:30N 35°28' E 139°42'0 0.0
2017-Nov-29 19:00N 35°28' E 139°42'0 0.0
2017-Nov-29 18:31N 35°28' E 139°42'0 0.0
2017-Nov-29 18:00N 35°28' E 139°42'0 0.0
2017-Nov-29 17:31N 35°28' E 139°42'0 0.0
2017-Nov-29 17:00N 35°28' E 139°42'0 0.0
2017-Nov-29 16:30N 35°28' E 139°42'0 0.0
2017-Nov-29 16:01N 35°28' E 139°42'0 0.0
2017-Nov-29 15:30N 35°28' E 139°42'0 0.0
2017-Nov-29 15:00N 35°28' E 139°42'0 0.0
2017-Nov-29 14:30N 35°28' E 139°42'0 0.0
2017-Nov-29 14:00N 35°28' E 139°42'0 0.0
2017-Nov-29 13:30N 35°28' E 139°42'0 0.0
2017-Nov-29 13:00N 35°28' E 139°42'0 0.0
2017-Nov-29 12:30N 35°28' E 139°42'0 0.0
2017-Nov-29 12:00N 35°28' E 139°42'0 0.0
2017-Nov-29 11:30N 35°28' E 139°42'0 0.0
2017-Nov-29 11:00N 35°28' E 139°42'0 0.0
2017-Nov-29 10:30N 35°28' E 139°42'0 0.0
2017-Nov-29 10:00N 35°28' E 139°42'0 0.0
2017-Nov-29 09:30N 35°28' E 139°42'0 0.0
2017-Nov-29 09:00N 35°28' E 139°42'0 0.0
2017-Nov-29 08:31N 35°28' E 139°42'0 0.0
2017-Nov-29 08:00N 35°28' E 139°42'0 0.0
2017-Nov-29 07:30N 35°28' E 139°42'0 0.0
2017-Nov-29 07:00N 35°28' E 139°42'0 0.0
2017-Nov-29 06:30N 35°28' E 139°42'0 0.0
2017-Nov-29 06:00N 35°28' E 139°42'0 0.0
2017-Nov-29 05:30N 35°28' E 139°42'0 0.0
2017-Nov-29 05:00N 35°28' E 139°42'0 0.0
2017-Nov-29 04:30N 35°28' E 139°42'0 0.0
2017-Nov-29 04:00N 35°28' E 139°42'0 0.0
2017-Nov-29 03:30N 35°28' E 139°42'0 0.0
2017-Nov-29 03:00N 35°28' E 139°42'0 0.0
2017-Nov-29 02:30N 35°28' E 139°42'0 0.0
2017-Nov-29 02:00N 35°28' E 139°42'0 0.0
2017-Nov-29 01:30N 35°28' E 139°42'0 0.0
2017-Nov-29 01:00N 35°28' E 139°42'0 0.0
2017-Nov-29 00:30N 35°28' E 139°42'0 0.0
2017-Nov-29 00:01N 35°28' E 139°42'0 0.0
2017-Nov-28 23:30N 35°28' E 139°42'0 0.0
2017-Nov-28 23:00N 35°28' E 139°42'0 0.0
2017-Nov-28 22:30N 35°28' E 139°42'0 0.2
2017-Nov-28 22:00N 35°28' E 139°42'2 3.5
2017-Nov-28 21:30N 35°26' E 139°43'1 2.0
2017-Nov-28 20:58N 35°26' E 139°42'0 0.0
2017-Nov-28 20:28N 35°26' E 139°42'0 0.1
2017-Nov-28 19:58N 35°26' E 139°42'0 0.1
2017-Nov-28 19:28N 35°26' E 139°42'0 0.1
2017-Nov-28 18:58N 35°26' E 139°42'0 0.0
2017-Nov-28 18:28N 35°26' E 139°42'0 0.1
2017-Nov-28 17:58N 35°26' E 139°42'0 0.0
2017-Nov-28 17:28N 35°26' E 139°42'0 0.0
2017-Nov-28 16:58N 35°26' E 139°42'0 0.0
2017-Nov-28 16:28N 35°26' E 139°42'0 0.0
2017-Nov-28 15:58N 35°26' E 139°42'0 0.0
2017-Nov-28 14:58N 35°26' E 139°42'0 0.0
2017-Nov-28 14:28N 35°26' E 139°42'0 0.0
2017-Nov-28 13:58N 35°26' E 139°42'0 0.0
2017-Nov-28 13:28N 35°26' E 139°42'0 0.0
2017-Nov-28 12:58N 35°26' E 139°42'0 0.1
2017-Nov-28 12:28N 35°26' E 139°42'0 0.0
2017-Nov-28 11:58N 35°26' E 139°42'0 0.0
2017-Nov-28 11:28N 35°26' E 139°42'0 0.1
2017-Nov-28 10:58N 35°26' E 139°42'0 0.0
2017-Nov-28 10:28N 35°26' E 139°42'0 0.1
2017-Nov-28 09:58N 35°26' E 139°42'0 0.0
2017-Nov-28 09:28N 35°26' E 139°42'0 0.0
2017-Nov-28 08:58N 35°26' E 139°42'0 0.0
2017-Nov-28 08:28N 35°26' E 139°42'0 0.0
2017-Nov-28 07:58N 35°26' E 139°42'0 0.0
2017-Nov-28 07:28N 35°26' E 139°42'0 0.0
2017-Nov-28 06:58N 35°26' E 139°42'0 0.0
2017-Nov-28 06:28N 35°26' E 139°42'0 0.0
2017-Nov-28 05:58N 35°26' E 139°42'0 0.1
2017-Nov-28 05:28N 35°26' E 139°42'0 0.0
2017-Nov-28 04:28N 35°26' E 139°42'0 0.0
2017-Nov-28 03:58N 35°26' E 139°42'0 0.1
2017-Nov-28 03:28N 35°26' E 139°42'0 0.0
2017-Nov-28 02:58N 35°26' E 139°42'0 0.0
2017-Nov-28 02:28N 35°26' E 139°42'0 0.0
2017-Nov-28 01:58N 35°26' E 139°42'0 0.1
2017-Nov-28 01:28N 35°26' E 139°42'0 0.0
2017-Nov-28 00:58N 35°26' E 139°42'0 0.0
2017-Nov-28 00:28N 35°26' E 139°42'0 0.1
2017-Nov-27 23:58N 35°26' E 139°42'0 0.0
2017-Nov-27 23:28N 35°26' E 139°42'0 0.0
2017-Nov-27 22:58N 35°26' E 139°42'0 0.1
2017-Nov-27 22:28N 35°26' E 139°42'0 0.1
2017-Nov-27 21:58N 35°26' E 139°42'0 0.0
2017-Nov-27 21:28N 35°26' E 139°42'0 0.1
2017-Nov-27 20:58N 35°26' E 139°42'0 0.1
2017-Nov-27 20:28N 35°26' E 139°42'0 0.0
2017-Nov-27 19:58N 35°26' E 139°42'0 0.0
2017-Nov-27 19:28N 35°26' E 139°42'0 0.1
2017-Nov-27 18:58N 35°26' E 139°42'0 0.1
2017-Nov-27 18:28N 35°26' E 139°42'0 0.1
2017-Nov-27 17:58N 35°26' E 139°42'0 0.0
2017-Nov-27 17:25N 35°26' E 139°42'0 0.0
2017-Nov-27 16:58N 35°26' E 139°42'0 0.0
2017-Nov-27 16:28N 35°26' E 139°42'0 0.0
2017-Nov-27 15:58N 35°26' E 139°42'0 0.0
2017-Nov-27 15:28N 35°26' E 139°42'0 0.0
2017-Nov-27 14:58N 35°26' E 139°42'0 0.0
2017-Nov-27 14:28N 35°26' E 139°42'0 0.0
2017-Nov-27 13:58N 35°26' E 139°42'0 0.1
2017-Nov-27 13:28N 35°26' E 139°42'0 0.0
2017-Nov-27 12:58N 35°26' E 139°42'0 0.0
2017-Nov-27 12:28N 35°26' E 139°42'0 0.0
2017-Nov-27 11:58N 35°26' E 139°42'0 0.0
2017-Nov-27 11:28N 35°26' E 139°42'0 0.0
2017-Nov-27 10:58N 35°26' E 139°42'0 0.0
2017-Nov-27 10:28N 35°26' E 139°42'0 0.0
2017-Nov-27 09:58N 35°26' E 139°42'0 0.0
2017-Nov-27 09:28N 35°26' E 139°42'0 0.0
2017-Nov-27 08:58N 35°26' E 139°42'0 0.0
2017-Nov-27 08:28N 35°26' E 139°42'0 0.0
2017-Nov-27 07:58N 35°26' E 139°42'0 0.0
2017-Nov-27 07:28N 35°26' E 139°42'0 0.0
2017-Nov-27 06:58N 35°26' E 139°42'0 0.0
2017-Nov-27 06:28N 35°26' E 139°42'0 0.0
2017-Nov-27 05:58N 35°26' E 139°42'0 0.0
2017-Nov-27 05:28N 35°26' E 139°42'0 0.1
2017-Nov-27 04:58N 35°26' E 139°42'0 0.0
2017-Nov-27 04:28N 35°26' E 139°42'0 0.1
2017-Nov-27 03:58N 35°26' E 139°42'0 0.0
2017-Nov-27 03:28N 35°26' E 139°42'0 0.0
2017-Nov-27 02:58N 35°26' E 139°42'0 0.0
2017-Nov-27 02:28N 35°26' E 139°42'0 0.0
2017-Nov-27 01:58N 35°26' E 139°42'0 0.0
2017-Nov-27 01:28N 35°26' E 139°42'0 0.0
2017-Nov-27 00:58N 35°26' E 139°42'0 0.0
2017-Nov-27 00:28N 35°26' E 139°42'0 0.2
2017-Nov-27 00:00N 35°26' E 139°42'3 6.4
2017-Nov-26 23:30N 35°23' E 139°43'4 8.8
2017-Nov-26 23:00N 35°18' E 139°44'5 9.5
2017-Nov-26 22:30N 35°14' E 139°47'4 8.9
2017-Nov-26 22:00N 35°10' E 139°46'4 8.8
2017-Nov-26 21:30N 35°06' E 139°45'4 8.4
2017-Nov-26 21:00N 35°03' E 139°41'4 8.4
2017-Nov-26 20:30N 35°00' E 139°37'5 9.1
2017-Nov-26 20:00N 34°57' E 139°33'510.3
2017-Nov-26 19:28N 34°54' E 139°27'510.4
2017-Nov-26 19:00N 34°52' E 139°22'510.6
2017-Nov-26 18:30N 34°48' E 139°18'610.9
2017-Nov-26 18:00N 34°44' E 139°14'611.9
2017-Nov-26 17:30N 34°39' E 139°09'612.2
2017-Nov-26 17:00N 34°34' E 139°04'611.7
2017-Nov-26 16:30N 34°30' E 138°59'712.1
2017-Nov-26 15:54N 34°27' E 138°51'511.6
2017-Nov-26 15:29N 34°26' E 138°46'611.5
2017-Nov-26 15:00N 34°23' E 138°39'611.3
2017-Nov-26 14:30N 34°21' E 138°33'611.0
2017-Nov-26 14:00N 34°19' E 138°27'810.5
2017-Nov-26 13:13N 34°16' E 138°18'410.2
2017-Nov-26 12:52N 34°15' E 138°14'410.6
2017-Nov-26 12:28N 34°13' E 138°09'145 8.5
2017-Nov-25 19:27N 33°19' E 135°28'116 9.8
2017-Nov-25 07:40N 32°40' E 133°17'  

Dump ship's entire track history